createdAt,value
2018-12-29T00:00:42.498Z,64.67
2018-12-29T00:03:12.378Z,64.53
2018-12-29T00:05:42.201Z,63.75
2018-12-29T00:08:12.070Z,63.46
2018-12-29T00:10:42.052Z,61.25
2018-12-29T00:13:11.747Z,58.64
2018-12-29T00:15:41.614Z,55.95
2018-12-29T00:18:11.284Z,55.78
2018-12-29T00:20:41.347Z,55.73
2018-12-29T00:23:11.098Z,55.58
2018-12-29T00:25:41.143Z,54.85
2018-12-29T00:28:10.978Z,52.42
2018-12-29T00:30:40.861Z,50.79
2018-12-29T00:33:10.782Z,45.35
2018-12-29T00:35:40.731Z,42.97
2018-12-29T00:38:10.514Z,40.66
2018-12-29T00:40:40.369Z,39.85
2018-12-29T00:43:10.243Z,39.72
2018-12-29T00:45:40.048Z,38.56
2018-12-29T00:48:09.803Z,35.69
2018-12-29T00:50:39.577Z,27.30
2018-12-29T00:53:09.564Z,26.46
2018-12-29T00:55:39.303Z,25.60
2018-12-29T00:58:09.273Z,24.61
2018-12-29T01:00:38.937Z,23.21
2018-12-29T01:03:08.661Z,21.91
2018-12-29T01:05:38.589Z,19.22
2018-12-29T01:08:08.486Z,17.07
2018-12-29T01:10:38.312Z,14.74
2018-12-29T01:13:08.269Z,13.07
2018-12-29T01:15:38.223Z,10.51
2018-12-29T01:18:07.953Z,9.35
2018-12-29T01:20:37.869Z,8.79
2018-12-29T01:23:07.705Z,8.63
2018-12-29T01:25:37.394Z,8.42
2018-12-29T01:28:07.262Z,8.08
2018-12-29T01:30:37.312Z,7.84
2018-12-29T01:33:07.252Z,7.50
2018-12-29T01:35:37.214Z,6.58
2018-12-29T01:38:06.855Z,6.22
2018-12-29T01:40:36.770Z,6.14
2018-12-29T01:43:07.905Z,6.02
2018-12-29T01:45:37.720Z,5.96
2018-12-29T01:48:07.600Z,6.01
2018-12-29T01:50:37.410Z,6.01
2018-12-29T01:53:07.184Z,6.07
2018-12-29T01:55:36.906Z,6.08
2018-12-29T01:58:06.776Z,6.04
2018-12-29T02:00:36.528Z,6.01
2018-12-29T02:03:06.300Z,5.54
2018-12-29T02:05:36.035Z,5.45
2018-12-29T02:08:05.922Z,5.40
2018-12-29T02:10:35.667Z,5.43
2018-12-29T02:13:05.496Z,5.56
2018-12-29T02:15:35.882Z,5.59
2018-12-29T02:18:05.632Z,5.55
2018-12-29T02:20:35.337Z,5.49
2018-12-29T02:23:05.318Z,5.52
2018-12-29T02:25:35.063Z,5.52
2018-12-29T02:28:04.877Z,5.56
2018-12-29T02:30:34.741Z,5.58
2018-12-29T02:33:04.819Z,5.56
2018-12-29T02:35:34.587Z,5.56
2018-12-29T02:38:04.469Z,5.47
2018-12-29T02:40:34.378Z,5.44
2018-12-29T02:43:04.521Z,5.43
2018-12-29T02:45:34.217Z,5.44
2018-12-29T02:48:04.227Z,5.42
2018-12-29T02:50:34.318Z,5.57
2018-12-29T02:53:04.208Z,5.79
2018-12-29T02:55:33.967Z,6.34
2018-12-29T02:58:03.906Z,6.92
2018-12-29T03:00:33.918Z,7.31
2018-12-29T03:03:03.825Z,8.06
2018-12-29T03:05:33.857Z,9.17
2018-12-29T03:08:03.823Z,9.31
2018-12-29T03:10:33.594Z,9.44
2018-12-29T03:13:03.301Z,9.56
2018-12-29T03:15:40.905Z,9.89
2018-12-29T03:18:06.236Z,11.54
2018-12-29T03:20:36.222Z,13.60
2018-12-29T03:23:06.177Z,14.23
2018-12-29T03:25:36.113Z,14.36
2018-12-29T03:28:05.747Z,14.84
2018-12-29T03:30:35.682Z,15.72
2018-12-29T03:33:05.823Z,16.91
2018-12-29T03:35:35.704Z,16.97
2018-12-29T03:38:05.607Z,26.10
2018-12-29T03:40:54.234Z,26.41
2018-12-29T03:43:24.102Z,26.40
2018-12-29T03:45:53.892Z,25.57
2018-12-29T03:48:23.660Z,26.29
2018-12-29T03:50:53.425Z,25.72
2018-12-29T03:53:23.340Z,25.86
2018-12-29T03:55:54.665Z,27.04
2018-12-29T03:58:24.602Z,27.79
2018-12-29T04:00:54.528Z,27.02
2018-12-29T04:03:24.325Z,26.92
2018-12-29T04:05:54.162Z,26.98
2018-12-29T04:08:24.231Z,26.80
2018-12-29T04:10:54.031Z,26.79
2018-12-29T04:13:23.865Z,26.16
2018-12-29T04:15:57.803Z,25.37
2018-12-29T04:18:25.344Z,27.43
2018-12-29T04:20:55.009Z,26.52
2018-12-29T04:23:24.886Z,25.94
2018-12-29T04:25:54.669Z,25.72
2018-12-29T04:28:24.658Z,25.30
2018-12-29T04:30:54.463Z,25.43
2018-12-29T04:33:24.315Z,25.65
2018-12-29T04:35:54.177Z,26.78
2018-12-29T04:38:24.116Z,28.00
2018-12-29T04:40:53.874Z,28.40
2018-12-29T04:43:23.738Z,28.34
2018-12-29T04:45:53.668Z,28.44
2018-12-29T04:48:23.735Z,28.02
2018-12-29T04:50:53.502Z,28.11
2018-12-29T04:53:23.411Z,28.49
2018-12-29T04:55:53.316Z,28.38
2018-12-29T04:58:23.200Z,28.52
2018-12-29T05:00:52.957Z,28.96
2018-12-29T05:03:22.814Z,29.98
2018-12-29T05:05:52.537Z,31.50
2018-12-29T05:08:22.280Z,31.66
2018-12-29T05:10:52.112Z,32.43
2018-12-29T05:13:21.983Z,32.58
2018-12-29T05:15:51.832Z,32.17
2018-12-29T05:18:21.771Z,32.46
2018-12-29T05:20:51.611Z,32.49
2018-12-29T05:23:21.393Z,33.05
2018-12-29T05:25:51.199Z,35.91
2018-12-29T05:28:21.044Z,36.31
2018-12-29T05:30:50.832Z,36.77
2018-12-29T05:33:20.520Z,36.34
2018-12-29T05:35:50.308Z,36.41
2018-12-29T05:38:20.165Z,36.12
2018-12-29T05:40:50.069Z,36.48
2018-12-29T05:43:21.142Z,36.52
2018-12-29T05:45:51.078Z,35.39
2018-12-29T05:48:20.954Z,35.17
2018-12-29T05:50:50.838Z,35.08
2018-12-29T05:53:20.632Z,34.27
2018-12-29T05:55:50.414Z,34.42
2018-12-29T05:58:20.381Z,32.90
2018-12-29T06:00:50.147Z,33.93
2018-12-29T06:03:19.933Z,32.89
2018-12-29T06:05:50.030Z,33.57
2018-12-29T06:08:19.908Z,33.35
2018-12-29T06:10:49.709Z,33.50
2018-12-29T06:13:19.763Z,33.95
2018-12-29T06:15:49.643Z,34.45
2018-12-29T06:18:19.441Z,34.52
2018-12-29T06:20:49.372Z,34.66
2018-12-29T06:23:19.157Z,36.33
2018-12-29T06:25:49.200Z,35.78
2018-12-29T06:28:19.069Z,35.35
2018-12-29T06:30:48.814Z,35.31
2018-12-29T06:33:18.738Z,36.07
2018-12-29T06:35:48.595Z,36.70
2018-12-29T06:38:19.800Z,37.10
2018-12-29T06:40:49.728Z,36.65
2018-12-29T06:43:19.695Z,36.69
2018-12-29T06:45:49.399Z,38.13
2018-12-29T06:48:19.271Z,39.05
2018-12-29T06:50:49.134Z,39.45
2018-12-29T06:53:18.926Z,41.50
2018-12-29T06:55:48.695Z,42.28
2018-12-29T06:58:18.667Z,42.53
2018-12-29T07:00:48.439Z,42.00
2018-12-29T07:03:18.251Z,43.31
2018-12-29T07:05:48.332Z,46.85
2018-12-29T07:08:18.032Z,47.65
2018-12-29T07:10:48.003Z,44.57
2018-12-29T07:13:18.024Z,42.05
2018-12-29T07:15:47.944Z,39.79
2018-12-29T07:18:17.785Z,40.04
2018-12-29T07:20:47.594Z,40.99
2018-12-29T07:23:17.261Z,40.96
2018-12-29T07:25:47.222Z,39.15
2018-12-29T07:28:17.065Z,38.45
2018-12-29T07:30:46.807Z,36.75
2018-12-29T07:33:16.674Z,36.69
2018-12-29T07:35:46.329Z,36.96
2018-12-29T07:38:16.154Z,38.41
2018-12-29T07:40:46.087Z,38.15
2018-12-29T07:43:15.984Z,40.01
2018-12-29T07:45:45.921Z,39.70
2018-12-29T07:48:16.298Z,40.82
2018-12-29T07:50:46.595Z,44.87
2018-12-29T07:53:16.628Z,43.51
2018-12-29T07:55:46.722Z,42.56
2018-12-29T07:58:16.581Z,43.34
2018-12-29T08:00:46.090Z,43.99
2018-12-29T08:03:15.639Z,44.99
2018-12-29T08:05:45.154Z,44.34
2018-12-29T08:08:14.659Z,45.18
2018-12-29T08:10:44.216Z,44.89
2018-12-29T08:13:13.737Z,44.32
2018-12-29T08:15:43.297Z,44.08
2018-12-29T08:18:12.859Z,41.33
2018-12-29T08:20:42.380Z,39.71
2018-12-29T08:23:13.220Z,38.90
2018-12-29T08:25:42.865Z,39.04
2018-12-29T08:28:12.400Z,38.69
2018-12-29T08:30:41.905Z,38.48
2018-12-29T08:33:11.864Z,37.93
2018-12-29T08:35:41.833Z,39.98
2018-12-29T08:38:11.507Z,41.79
2018-12-29T08:40:41.265Z,40.04
2018-12-29T08:43:10.770Z,39.72
2018-12-29T08:45:40.548Z,39.47
2018-12-29T08:48:10.206Z,38.86
2018-12-29T08:50:40.452Z,39.51
2018-12-29T08:53:10.295Z,42.55
2018-12-29T08:55:40.102Z,42.87
2018-12-29T08:58:09.926Z,42.36
2018-12-29T09:00:39.568Z,43.95
2018-12-29T09:03:09.280Z,42.24
2018-12-29T09:05:39.157Z,41.61
2018-12-29T09:08:08.895Z,43.91
2018-12-29T09:10:38.621Z,46.47
2018-12-29T09:13:09.691Z,45.78
2018-12-29T09:15:39.593Z,47.45
2018-12-29T09:18:09.482Z,49.30
2018-12-29T09:20:39.334Z,46.51
2018-12-29T09:23:09.125Z,49.53
2018-12-29T09:25:39.255Z,51.00
2018-12-29T09:28:09.205Z,52.98
2018-12-29T09:30:38.734Z,56.33
2018-12-29T09:33:08.386Z,55.68
2018-12-29T09:35:38.120Z,55.43
2018-12-29T09:38:07.999Z,54.72
2018-12-29T09:40:39.096Z,56.71
2018-12-29T09:43:08.859Z,57.08
2018-12-29T09:45:38.675Z,54.56
2018-12-29T09:48:08.454Z,54.53
2018-12-29T09:50:38.114Z,50.87
2018-12-29T09:53:07.908Z,50.58
2018-12-29T09:55:39.079Z,52.10
2018-12-29T09:58:08.866Z,49.64
2018-12-29T10:00:38.583Z,42.84
2018-12-29T10:03:08.316Z,46.24
2018-12-29T10:05:38.213Z,46.26
2018-12-29T10:08:08.111Z,46.25
2018-12-29T10:10:38.875Z,47.43
2018-12-29T10:13:08.600Z,47.71
2018-12-29T10:15:38.474Z,48.64
2018-12-29T10:18:08.235Z,44.15
2018-12-29T10:20:38.234Z,44.14
2018-12-29T10:23:08.220Z,41.75
2018-12-29T10:25:37.962Z,40.91
2018-12-29T10:28:07.787Z,42.83
2018-12-29T10:30:37.562Z,41.57
2018-12-29T10:33:07.331Z,49.44
2018-12-29T10:35:37.398Z,72.30
2018-12-29T10:38:07.274Z,68.29
2018-12-29T10:40:37.134Z,70.21
2018-12-29T10:43:07.038Z,73.87
2018-12-29T10:45:36.874Z,72.80
2018-12-29T10:48:06.891Z,71.00
2018-12-29T10:50:36.641Z,71.87
2018-12-29T10:53:06.321Z,71.27
2018-12-29T10:55:36.130Z,71.46
2018-12-29T10:58:05.793Z,66.50
2018-12-29T11:00:35.652Z,68.44
2018-12-29T11:03:05.534Z,67.59
2018-12-29T11:05:35.277Z,66.99
2018-12-29T11:08:05.324Z,65.89
2018-12-29T11:10:35.283Z,59.66
2018-12-29T11:13:05.039Z,58.81
2018-12-29T11:15:34.917Z,61.95
2018-12-29T11:18:04.807Z,58.82
2018-12-29T11:20:34.960Z,56.25
2018-12-29T11:23:04.900Z,57.55
2018-12-29T11:25:34.728Z,55.52
2018-12-29T11:28:04.763Z,55.56
2018-12-29T11:30:34.639Z,53.71
2018-12-29T11:33:04.474Z,51.28
2018-12-29T11:35:34.302Z,49.09
2018-12-29T11:38:04.041Z,46.87
2018-12-29T11:40:33.709Z,43.55
2018-12-29T11:43:03.421Z,48.63
2018-12-29T11:45:34.487Z,49.69
2018-12-29T11:48:04.281Z,48.00
2018-12-29T11:50:33.994Z,52.54
2018-12-29T11:53:05.217Z,55.73
2018-12-29T11:55:34.843Z,46.61
2018-12-29T11:58:04.956Z,44.76
2018-12-29T12:00:34.731Z,45.58
2018-12-29T12:03:04.487Z,44.46
2018-12-29T12:05:34.096Z,44.75
2018-12-29T12:08:03.865Z,45.21
2018-12-29T12:10:33.658Z,42.85
2018-12-29T12:13:03.570Z,39.94
2018-12-29T12:15:33.490Z,38.76
2018-12-29T12:18:05.740Z,36.59
2018-12-29T12:20:35.456Z,35.92
2018-12-29T12:23:06.710Z,34.66
2018-12-29T12:25:36.560Z,34.50
2018-12-29T12:28:06.755Z,34.34
2018-12-29T12:30:36.737Z,33.96
2018-12-29T12:33:06.962Z,33.56
2018-12-29T12:35:36.716Z,33.55
2018-12-29T12:38:07.312Z,32.85
2018-12-29T12:40:37.343Z,33.52
2018-12-29T12:43:07.595Z,33.63
2018-12-29T12:45:39.307Z,33.80
2018-12-29T12:48:09.095Z,34.12
2018-12-29T12:50:38.770Z,34.11
2018-12-29T12:53:08.628Z,34.19
2018-12-29T12:55:38.709Z,34.46
2018-12-29T12:58:08.937Z,36.08
2018-12-29T13:00:38.892Z,35.53
2018-12-29T13:03:09.037Z,34.43
2018-12-29T13:05:38.692Z,34.43
2018-12-29T13:08:10.037Z,34.18
2018-12-29T13:10:39.952Z,33.88
2018-12-29T13:13:09.758Z,33.78
2018-12-29T13:15:39.730Z,33.77
2018-12-29T13:18:13.148Z,33.72
2018-12-29T13:20:41.287Z,33.85
2018-12-29T13:23:11.038Z,33.88
2018-12-29T13:25:40.970Z,34.10
2018-12-29T13:28:11.779Z,34.42
2018-12-29T13:30:42.777Z,34.51
2018-12-29T13:33:12.560Z,34.80
2018-12-29T13:35:42.392Z,34.80
2018-12-29T13:38:12.362Z,34.80
2018-12-29T13:40:42.527Z,34.95
2018-12-29T13:43:12.592Z,34.61
2018-12-29T13:45:42.239Z,34.38
2018-12-29T13:48:12.074Z,34.37
2018-12-29T13:50:41.937Z,33.96
2018-12-29T13:53:11.896Z,33.78
2018-12-29T13:55:41.738Z,33.81
2018-12-29T13:58:12.671Z,33.85
2018-12-29T14:00:42.466Z,33.77
2018-12-29T14:03:12.507Z,33.83
2018-12-29T14:05:42.468Z,33.55
2018-12-29T14:08:12.112Z,33.18
2018-12-29T14:10:41.834Z,33.11
2018-12-29T14:13:11.610Z,33.70
2018-12-29T14:15:42.530Z,34.17
2018-12-29T14:18:12.228Z,35.26
2018-12-29T14:20:42.006Z,35.54
2018-12-29T14:23:11.883Z,34.81
2018-12-29T14:25:41.781Z,34.62
2018-12-29T14:28:11.742Z,34.17
2018-12-29T14:30:41.679Z,34.61
2018-12-29T14:33:11.685Z,34.79
2018-12-29T14:35:41.434Z,35.04
2018-12-29T14:38:11.591Z,34.96
2018-12-29T14:40:41.469Z,35.46
2018-12-29T14:43:11.320Z,36.33
2018-12-29T14:45:41.097Z,36.25
2018-12-29T14:48:10.981Z,35.29
2018-12-29T14:50:40.724Z,34.19
2018-12-29T14:53:10.692Z,34.11
2018-12-29T14:55:40.520Z,34.28
2018-12-29T14:58:10.395Z,34.27
2018-12-29T15:00:40.177Z,36.56
2018-12-29T15:03:09.993Z,39.06
2018-12-29T15:05:40.072Z,41.46
2018-12-29T15:08:12.035Z,41.60
2018-12-29T15:10:42.060Z,41.85
2018-12-29T15:13:12.044Z,42.51
2018-12-29T15:15:41.905Z,43.70
2018-12-29T15:18:11.819Z,43.37
2018-12-29T15:20:41.877Z,45.20
2018-12-29T15:23:11.852Z,45.96
2018-12-29T15:25:41.681Z,44.43
2018-12-29T15:28:11.733Z,47.26
2018-12-29T15:30:41.711Z,46.26
2018-12-29T15:33:11.647Z,45.57
2018-12-29T15:35:41.811Z,45.15
2018-12-29T15:38:11.658Z,43.03
2018-12-29T15:40:41.524Z,45.18
2018-12-29T15:43:11.310Z,44.95
2018-12-29T15:45:41.418Z,46.66
2018-12-29T15:48:12.703Z,46.31
2018-12-29T15:50:42.635Z,46.40
2018-12-29T15:53:12.655Z,47.00
2018-12-29T15:55:44.030Z,48.36
2018-12-29T15:58:14.277Z,48.38
2018-12-29T16:00:44.223Z,49.14
2018-12-29T16:03:15.696Z,46.97
2018-12-29T16:05:45.556Z,45.02
2018-12-29T16:08:15.435Z,45.69
2018-12-29T16:10:45.351Z,47.00
2018-12-29T16:13:15.166Z,51.45
2018-12-29T16:15:45.115Z,61.98
2018-12-29T16:18:16.218Z,60.49
2018-12-29T16:20:53.117Z,59.46
2018-12-29T16:23:17.683Z,57.23
2018-12-29T16:25:48.776Z,54.58
2018-12-29T16:28:18.541Z,53.32
2018-12-29T16:30:48.346Z,52.65
2018-12-29T16:33:18.168Z,54.10
2018-12-29T16:35:48.258Z,54.21
2018-12-29T16:38:18.126Z,53.46
2018-12-29T16:40:47.925Z,52.81
2018-12-29T16:43:17.892Z,51.00
2018-12-29T16:45:48.354Z,49.19
2018-12-29T16:48:18.170Z,48.59
2018-12-29T16:50:49.280Z,47.00
2018-12-29T16:53:19.355Z,46.83
2018-12-29T16:55:49.170Z,49.42
2018-12-29T16:58:19.436Z,55.69
2018-12-29T17:00:49.407Z,57.35
2018-12-29T17:03:19.257Z,57.24
2018-12-29T17:05:50.443Z,58.14
2018-12-29T17:08:20.164Z,56.81
2018-12-29T17:10:50.240Z,56.56
2018-12-29T17:13:20.320Z,56.55
2018-12-29T17:15:50.114Z,61.72
2018-12-29T17:18:19.889Z,62.29
2018-12-29T17:20:49.535Z,67.79
2018-12-29T17:23:19.265Z,71.67
2018-12-29T17:25:49.122Z,75.53
2018-12-29T17:28:19.017Z,78.42
2018-12-29T17:30:48.919Z,78.55
2018-12-29T17:33:18.876Z,79.10
2018-12-29T17:35:48.537Z,79.18
2018-12-29T17:38:18.545Z,78.84
2018-12-29T17:40:48.413Z,77.65
2018-12-29T17:43:18.202Z,77.44
2018-12-29T17:45:48.012Z,76.91
2018-12-29T17:48:17.950Z,76.47
2018-12-29T17:50:47.645Z,76.78
2018-12-29T17:53:17.761Z,77.36
2018-12-29T17:55:47.607Z,77.59
2018-12-29T17:58:17.387Z,77.56
2018-12-29T18:00:47.411Z,78.03
2018-12-29T18:03:18.554Z,77.55
2018-12-29T18:05:48.560Z,77.48
2018-12-29T18:08:18.401Z,77.20
2018-12-29T18:10:48.241Z,77.00
2018-12-29T18:13:18.326Z,76.63
2018-12-29T18:15:48.181Z,75.59
2018-12-29T18:18:19.282Z,74.96
2018-12-29T18:20:49.095Z,75.22
2018-12-29T18:23:18.894Z,74.51
2018-12-29T18:25:48.782Z,76.16
2018-12-29T18:28:18.536Z,77.19
2018-12-29T18:30:48.347Z,77.52
2018-12-29T18:33:18.509Z,76.80
2018-12-29T18:35:48.362Z,76.88
2018-12-29T18:38:18.366Z,77.32
2018-12-29T18:40:48.628Z,77.45
2018-12-29T18:43:18.557Z,77.90
2018-12-29T18:45:48.460Z,78.20
2018-12-29T18:48:18.340Z,78.09
2018-12-29T18:50:48.419Z,77.99
2018-12-29T18:53:18.211Z,77.94
2018-12-29T18:55:49.628Z,77.68
2018-12-29T18:58:19.476Z,78.00
2018-12-29T19:00:49.380Z,78.48
2018-12-29T19:03:19.377Z,78.37
2018-12-29T19:05:49.162Z,78.38
2018-12-29T19:08:18.959Z,78.22
2018-12-29T19:10:49.228Z,78.04
2018-12-29T19:13:19.711Z,77.75
2018-12-29T19:15:49.914Z,77.95
2018-12-29T19:18:19.897Z,77.64
2018-12-29T19:20:51.586Z,77.45
2018-12-29T19:23:21.410Z,76.99
2018-12-29T19:25:51.582Z,76.55
2018-12-29T19:28:21.563Z,76.21
2018-12-29T19:30:51.422Z,76.08
2018-12-29T19:33:21.579Z,75.90
2018-12-29T19:35:51.859Z,75.70
2018-12-29T19:38:21.985Z,75.72
2018-12-29T19:40:51.648Z,75.43
2018-12-29T19:43:21.791Z,74.57
2018-12-29T19:45:51.634Z,72.38
2018-12-29T19:48:21.378Z,68.64
2018-12-29T19:50:51.400Z,63.91
2018-12-29T19:53:21.810Z,59.76
2018-12-29T19:55:51.644Z,61.12
2018-12-29T19:58:21.424Z,59.23
2018-12-29T20:00:51.270Z,63.42
2018-12-29T20:03:21.096Z,66.59
2018-12-29T20:05:52.492Z,63.39
2018-12-29T20:08:22.374Z,62.38
2018-12-29T20:10:52.498Z,65.76
2018-12-29T20:13:22.482Z,68.21
2018-12-29T20:15:52.586Z,67.52
2018-12-29T20:18:22.277Z,65.94
2018-12-29T20:20:52.091Z,67.16
2018-12-29T20:23:21.757Z,68.18
2018-12-29T20:25:51.664Z,68.78
2018-12-29T20:28:21.632Z,67.84
2018-12-29T20:30:52.750Z,69.83
2018-12-29T20:33:22.660Z,71.24
2018-12-29T20:35:52.477Z,71.24
2018-12-29T20:38:23.416Z,71.70
2018-12-29T20:40:53.118Z,71.93
2018-12-29T20:43:22.932Z,67.69
2018-12-29T20:45:52.916Z,67.65
2018-12-29T20:48:22.650Z,68.38
2018-12-29T20:50:52.470Z,70.61
2018-12-29T20:53:22.318Z,69.68
2018-12-29T20:55:52.096Z,68.46
2018-12-29T20:58:22.109Z,67.89
2018-12-29T21:00:52.006Z,67.64
2018-12-29T21:03:21.741Z,66.89
2018-12-29T21:05:51.569Z,67.96
2018-12-29T21:08:21.416Z,69.30
2018-12-29T21:10:51.583Z,67.69
2018-12-29T21:13:21.322Z,66.57
2018-12-29T21:15:52.388Z,66.35
2018-12-29T21:18:22.299Z,65.33
2018-12-29T21:20:52.070Z,63.28
2018-12-29T21:23:22.256Z,61.92
2018-12-29T21:25:52.186Z,64.23
2018-12-29T21:28:21.934Z,64.89
2018-12-29T21:30:51.973Z,65.36
2018-12-29T21:33:21.944Z,67.97
2018-12-29T21:35:51.988Z,68.95
2018-12-29T21:38:21.900Z,67.67
2018-12-29T21:40:52.098Z,67.28
2018-12-29T21:43:22.021Z,68.30
2018-12-29T21:45:51.971Z,69.13
2018-12-29T21:48:22.022Z,70.61
2018-12-29T21:50:52.109Z,71.12
2018-12-29T21:53:21.818Z,72.59
2018-12-29T21:55:51.776Z,71.29
2018-12-29T21:58:21.588Z,72.27
2018-12-29T22:00:51.673Z,73.31
2018-12-29T22:03:21.373Z,72.47
2018-12-29T22:05:51.236Z,70.44
2018-12-29T22:08:21.268Z,68.33
2018-12-29T22:10:51.045Z,68.14
2018-12-29T22:13:21.071Z,68.16
2018-12-29T22:15:51.099Z,69.43
2018-12-29T22:18:21.511Z,70.04
2018-12-29T22:20:51.208Z,68.49
2018-12-29T22:23:21.065Z,68.16
2018-12-29T22:25:51.127Z,67.60
2018-12-29T22:28:21.016Z,67.32
2018-12-29T22:30:50.893Z,67.54
2018-12-29T22:33:21.441Z,67.42
2018-12-29T22:35:51.373Z,67.20
2018-12-29T22:38:21.673Z,67.07
2018-12-29T22:40:51.564Z,66.37
2018-12-29T22:43:21.457Z,66.02
2018-12-29T22:45:51.400Z,65.85
2018-12-29T22:48:21.247Z,66.19
2018-12-29T22:50:51.478Z,66.42
2018-12-29T22:53:21.247Z,66.91
2018-12-29T22:55:51.189Z,67.41
2018-12-29T22:58:21.022Z,67.64
2018-12-29T23:00:51.014Z,67.54
2018-12-29T23:03:20.832Z,67.17
2018-12-29T23:05:50.572Z,67.04
2018-12-29T23:08:20.429Z,66.50
2018-12-29T23:10:50.191Z,66.55
2018-12-29T23:13:19.957Z,67.12
2018-12-29T23:15:49.897Z,67.06
2018-12-29T23:18:19.869Z,66.32
2018-12-29T23:20:50.349Z,66.39
2018-12-29T23:23:20.152Z,65.64
2018-12-29T23:25:50.414Z,65.12
2018-12-29T23:28:20.376Z,63.51
2018-12-29T23:30:50.188Z,61.93
2018-12-29T23:33:19.983Z,60.73
2018-12-29T23:35:49.930Z,60.21
2018-12-29T23:38:20.045Z,60.56
2018-12-29T23:40:50.135Z,58.94
2018-12-29T23:43:19.812Z,58.67
2018-12-29T23:45:50.133Z,58.25
2018-12-29T23:48:19.982Z,58.84
2018-12-29T23:50:49.742Z,56.98
2018-12-29T23:53:19.660Z,56.12
2018-12-29T23:55:49.721Z,54.99
2018-12-29T23:58:19.514Z,54.07
